Home > Products > Valid Products > TAF

000
FTUS43 KMQT 301700
TAFSAW
TAF
KSAW 301720Z 3018/3118 36003KT 3SM -RA BR OVC003
      TEMPO 3018/3022 1SM -RA BR
     FM302200 35007KT P6SM OVC009
     FM310100 34005KT 4SM BR OVC006
     FM310500 36003KT 1SM BR OVC003
      TEMPO 3110/3114 1/4SM FG VV002
     FM311500 36006KT P6SM SCT005
      AMD LTD TO CLD VIS AND WIND 3102/3110=



000
FTUS43 KMQT 301700
TAFCMX
TAF
KCMX 301720Z 3018/3118 02007KT P6SM -DZ OVC005
     FM301900 02007KT P6SM OVC010
     FM310000 35003KT P6SM OVC020
     FM310700 VRB03KT 2SM BR SCT002
     FM310900 07004KT 1/4SM FG VV002
      TEMPO 3113/3114 2SM BR SCT003
     FM311400 09006KT P6SM SCT070=



000
FTUS43 KMQT 301500 AAB
TAFSAW
TAF AMD
KSAW 301556Z 3016/3112 VRB03KT 3SM -RA BR OVC007
      TEMPO 3017/3021 1SM -RA BR OVC003
     FM302100 35007KT P6SM OVC009
     FM310100 34005KT 4SM BR OVC006
     FM310500 36003KT 1SM BR OVC003
      AMD LTD TO CLD VIS AND WIND 3102/3110=



000
FTUS43 KMQT 301500 AAA
TAFSAW
TAF AMD
KSAW 301503Z 3015/3112 VRB03KT 4SM -DZ BR SCT003 BKN025
      TEMPO 3015/3017 1SM -RA BR OVC003
     FM301700 36008KT 3SM -DZ BR OVC004
     FM302100 35007KT P6SM OVC009
     FM310100 34005KT 4SM BR OVC006
     FM310500 36003KT 1SM BR OVC003
      AMD LTD TO CLD VIS AND WIND 3102/3110=



000
FTUS43 KMQT 301500 AAB
TAFCMX
TAF AMD
KCMX 301500Z 3015/3112 02007KT P6SM -DZ OVC005
     FM301800 02007KT P6SM OVC015
     FM310000 31003KT P6SM SCT025
     FM310300 VRB03KT 2SM BR SCT002
     FM310900 07004KT 1/4SM FG VV002=



000
FTUS43 KMQT 301400 AAA
TAFCMX
TAF AMD
KCMX 301448Z 3015/3112 02007KT P6SM -DZ OVC006
     FM301800 02007KT P6SM OVC015
     FM310000 31003KT P6SM SCT025
     FM310300 VRB03KT 2SM BR SCT002
     FM310900 07004KT 1/4SM FG VV002=



000
FTUS43 KMQT 301100
TAFSAW
TAF
KSAW 301135Z 3012/3112 VRB03KT 1SM -RA BR OVC003
     FM301500 01006KT 1/2SM -DZ FG OVC002
     FM301700 36008KT 3SM -DZ BR OVC004
     FM302100 35007KT P6SM OVC009
     FM310100 34005KT 4SM BR OVC006
     FM310500 36003KT 1SM BR OVC003
      AMD LTD TO CLD VIS AND WIND 3102/3110=



000
FTUS43 KMQT 301100
TAFCMX
TAF
KCMX 301135Z 3012/3112 34003KT 3SM -SHRA BR OVC004
     FM301600 01007KT 6SM BR OVC006
     FM301800 02007KT P6SM OVC015
     FM310000 31003KT P6SM SCT025
     FM310300 VRB03KT 2SM BR SCT002
     FM310900 07004KT 1/4SM FG VV002=



000
FTUS43 KMQT 300500
TAFCMX
TAF
KCMX 300538Z 3006/3106 34003KT 1SM -SHRA BR OVC005
      TEMPO 3007/3011 1/4SM FG VV001
     FM301300 35006KT 2SM BR OVC003
     FM301500 01007KT 6SM BR OVC006
     FM301800 02007KT P6SM BKN015
     FM302100 02006KT P6SM BKN025
     FM310000 31003KT P6SM SCT025
     FM310400 VRB03KT 3SM BR SCT002=



000
FTUS43 KMQT 300500
TAFSAW
TAF
KSAW 300538Z 3006/3106 20007KT 5SM -SHRA BR OVC040
     FM300800 35003KT 1SM -SHRA BR OVC003
     FM301800 35008KT 5SM BR OVC007
     FM302100 35007KT P6SM OVC015
     FM310100 34005KT 4SM BR OVC008
      AMD LTD TO CLD VIS AND WIND TIL 301000=



000
FTUS43 KMQT 300300 AAA
TAFSAW
TAF AMD
KSAW 300332Z 3004/3024 20007KT 5SM -SHRA BR OVC040
      TEMPO 3004/3008 BKN015
     FM300800 35003KT 1SM -SHRA BR OVC005
     FM301800 35008KT 5SM BR OVC007
     FM302100 35007KT P6SM OVC015
      AMD LTD TO CLD VIS AND WIND 3004/3010=



000
FTUS43 KMQT 300300 AAB
TAFCMX
TAF AMD
KCMX 300319Z 3003/3024 VRB03KT 1SM -SHRA BR OVC002
     FM301400 01007KT 6SM BR OVC006
     FM301800 02007KT P6SM BKN015
     FM302100 02006KT P6SM BKN025=



000
FTUS43 KMQT 300000 AAA
TAFCMX
TAF AMD
KCMX 300043Z 3001/3024 11006KT 1/4SM SHRA FG VV001
      TEMPO 3002/3006 3/4SM -SHRA BR VV002
     FM300600 34003KT 1SM -SHRA BR OVC002
     FM301400 01007KT 6SM BR OVC006
     FM301800 02007KT P6SM BKN015
     FM302100 02006KT P6SM BKN025=



000
FTUS43 KMQT 292300
TAFSAW
TAF
KSAW 292325Z 3000/3024 18009KT 1 1/2SM BR OVC003
     FM300400 20005KT 4SM SHRA BR OVC009
     FM301100 35003KT 1SM -SHRA BR OVC003
     FM301800 35008KT 5SM BR OVC007
     FM302100 35007KT P6SM OVC015
      AMD LTD TO CLD VIS AND WIND 3002/3010=



000
FTUS43 KMQT 292300
TAFCMX
TAF
KCMX 292325Z 3000/3024 11006KT 3SM SHRA BR OVC003
     FM300600 34003KT 1SM -SHRA BR OVC002
     FM301400 01007KT 6SM BR OVC006
     FM301800 02007KT P6SM BKN015
     FM302100 02006KT P6SM BKN025=



000
FTUS43 KMQT 292000 AAA
TAFCMX
TAF AMD
KCMX 292042Z 2921/3018 17006KT 6SM -SHRA BR OVC030
      TEMPO 2921/2924 2SM TSRA BR BKN008CB
     FM300000 22004KT 5SM -SHRA BR OVC005
     FM300400 34005KT 2SM SHRA BR OVC003
     FM301500 01008KT 5SM -SHRA BR OVC006=



000
FTUS43 KMQT 291900 AAA
TAFSAW
TAF AMD
KSAW 291952Z 2920/3018 18009KT 3SM -RA BR OVC003
     FM300500 20005KT 4SM RA BKN010
     FM300900 20005KT 4SM RA BKN008
     FM301600 36007KT 4SM RA BKN010
      AMD LTD TO CLD VIS AND WIND 3002/3010=



000
FTUS43 KMQT 291700
TAFSAW
TAF
KSAW 291731Z 2918/3018 18009KT 3SM -RA BR OVC003
     FM292200 18007KT P6SM -SHRA BKN020
     FM300500 20005KT 4SM RA BKN010
     FM300900 20005KT 4SM RA BKN008
     FM301600 36007KT 4SM RA BKN010
      AMD LTD TO CLD VIS AND WIND 3002/3010=



000
FTUS43 KMQT 291700
TAFCMX
TAF
KCMX 291731Z 2918/3018 12007KT 3SM -RA BR OVC003
     FM292000 17006KT 6SM -SHRA BR BKN008
     FM300000 22004KT 5SM -SHRA BR OVC005
     FM300400 34005KT 2SM SHRA BR OVC003
     FM301500 01008KT 5SM -SHRA BR OVC006=



000
FTUS43 KMQT 291600 AAC
TAFSAW
TAF AMD
KSAW 291609Z 2916/3012 16009KT 4SM -RA BR OVC003
     FM292200 18007KT P6SM -SHRA BKN020
     FM300500 20005KT 4SM RA BKN010
      AMD LTD TO CLD VIS AND WIND 3002/3010=



000
FTUS43 KMQT 291400 AAB
TAFCMX
TAF AMD
KCMX 291431Z 2915/3012 14008KT P6SM -RA OVC030
     FM291600 12007KT 4SM -RA BR OVC006
     FM291900 17006KT 6SM BR VCSH SCT006 BKN020
     FM300000 22004KT 5SM -SHRA BR OVC020
     FM300400 34005KT 2SM SHRA BR OVC009=



000
FTUS43 KMQT 291400 AAB
TAFSAW
TAF AMD
KSAW 291400Z 2914/3012 17007KT 6SM -SHRA OVC006
     FM291600 16009KT 5SM -RA BR OVC006
     FM292200 18007KT P6SM -SHRA BKN020
     FM300500 20005KT 4SM RA BKN010
      AMD LTD TO CLD VIS AND WIND 3002/3010=



000
FTUS43 KMQT 291300 AAA
TAFSAW
TAF AMD
KSAW 291321Z 2913/3012 17007KT 6SM -SHRA OVC004
     FM291600 16009KT 5SM -RA BR OVC006
     FM292200 18007KT P6SM -SHRA BKN020
     FM300500 20005KT 4SM RA BKN010
      AMD LTD TO CLD VIS AND WIND 3002/3010=



000
FTUS43 KMQT 291200 AAA
TAFCMX
TAF AMD
KCMX 291257Z 2913/3012 14008KT P6SM -RA OVC019
     FM291600 12007KT 4SM -RA BR OVC006
     FM291900 17006KT 6SM BR VCSH SCT006 BKN020
     FM300000 22004KT 5SM -SHRA BR OVC020
     FM300400 34005KT 2SM SHRA BR OVC009=



000
FTUS43 KMQT 291100
TAFCMX
TAF
KCMX 291138Z 2912/3012 15007KT P6SM -RA SCT040 BKN080
     FM291400 14008KT P6SM -RA OVC025
     FM291600 12007KT 4SM -RA BR OVC006
     FM291900 17006KT 6SM BR VCSH SCT006 BKN020
     FM300000 22004KT 5SM -SHRA BR OVC020
     FM300400 34005KT 2SM SHRA BR OVC009=



000
FTUS43 KMQT 291100
TAFSAW
TAF
KSAW 291138Z 2912/3012 17007KT 6SM -DZ BR OVC035
     FM291300 17007KT 6SM -SHRA OVC025
     FM291400 17008KT 6SM -RA BKN015
     FM291600 16009KT 5SM -RA BR OVC006
     FM292200 18007KT P6SM -SHRA BKN020
     FM300500 20005KT 4SM RA BKN010
      AMD LTD TO CLD VIS AND WIND 3002/3010=



000
FTUS43 KMQT 290500
TAFSAW
TAF
KSAW 290526Z 2906/3006 18006KT P6SM BKN150
     FM291100 16007KT P6SM -RA OVC025
     FM291400 16009KT 5SM -RA BR OVC006
     FM292200 18007KT P6SM -SHRA BKN012
      AMD LTD TO CLD VIS AND WIND TIL 291000=



000
FTUS43 KMQT 290500
TAFCMX
TAF
KCMX 290526Z 2906/3006 11005KT P6SM BKN150
     FM291000 15006KT P6SM -RA BKN080
     FM291400 14007KT P6SM -RA OVC025
     FM291600 12006KT 4SM -RA BR OVC006=



000
FTUS43 KMQT 282300
TAFSAW
TAF
KSAW 282329Z 2900/2924 17006KT P6SM BKN050
     FM291100 16007KT P6SM -RA OVC025
     FM291400 16009KT 5SM -RA BR OVC006
     FM292200 18007KT P6SM -SHRA BKN012
      AMD LTD TO CLD VIS AND WIND 2902/2910=



000
FTUS43 KMQT 282300
TAFCMX
TAF
KCMX 282329Z 2900/2924 11005KT P6SM BKN150
     FM291000 15006KT P6SM VCSH BKN080
     FM291200 14007KT P6SM -RA OVC025
     FM291500 12007KT 4SM -RA BR OVC006=



000
FTUS43 KMQT 281700
TAFSAW
TAF
KSAW 281736Z 2818/2918 13005KT P6SM BKN040
     FM282300 18006KT P6SM BKN200
     FM290900 18007KT P6SM VCSH BKN060
     FM291200 16007KT P6SM -RA OVC030
     FM291400 16009KT 5SM -RA BR OVC006
      AMD LTD TO CLD VIS AND WIND 2902/2910=



000
FTUS43 KMQT 281700
TAFCMX
TAF
KCMX 281736Z 2818/2918 14007KT P6SM SCT200
     FM282300 11005KT P6SM BKN150
     FM291000 15006KT P6SM VCSH BKN080
     FM291200 14007KT P6SM -RA OVC030
     FM291500 13007KT 5SM -RA BR OVC006=



000
FTUS43 KMQT 281100
TAFSAW
TAF
KSAW 281134Z 2812/2912 VRB03KT P6SM SKC
     FM281500 16005KT P6SM SCT035
     FM282000 12008KT P6SM BKN040
     FM290000 17006KT P6SM BKN200
     FM291000 17006KT P6SM VCSH BKN080
      AMD LTD TO CLD VIS AND WIND 2902/2910=



000
FTUS43 KMQT 281100
TAFCMX
TAF
KCMX 281134Z 2812/2912 18004KT P6SM SCT050
     FM281600 13007KT P6SM SCT200
     FM282300 10005KT P6SM BKN150
     FM291000 15006KT P6SM BKN080=



000
FTUS43 KMQT 281000 AAA
TAFSAW
TAF AMD
KSAW 281048Z 2811/2906 VRB03KT P6SM SKC
     FM281500 16005KT P6SM SCT035
     FM282000 12008KT P6SM BKN040
     FM290000 17006KT P6SM BKN200=



000
FTUS43 KMQT 280500
TAFSAW
TAF
KSAW 280528Z 2806/2906 VRB03KT P6SM SKC
      TEMPO 2808/2812 5SM BR
     FM281200 15005KT P6SM SCT200
      AMD LTD TO CLD VIS AND WIND TIL 281000=



000
FTUS43 KMQT 280500
TAFCMX
TAF
KCMX 280528Z 2806/2906 30004KT P6SM SCT050
     FM281400 14006KT P6SM SCT200=



000
FTUS43 KMQT 272300
TAFSAW
TAF
KSAW 272320Z 2800/2824 04008KT P6SM SKC
     FM280800 VRB03KT P6SM SKC
      TEMPO 2808/2812 4SM BR
     FM281200 15005KT P6SM SCT200
      AMD LTD TO CLD VIS AND WIND 2802/2810=



000
FTUS43 KMQT 272300
TAFCMX
TAF
KCMX 272320Z 2800/2824 29008KT P6SM BKN050
     FM280200 VRB03KT P6SM SKC
     FM281400 14006KT P6SM SCT200=



000
FTUS43 KMQT 271900 AAA
TAFSAW
TAF AMD
KSAW 271952Z 2720/2818 03007KT P6SM SCT045
     FM280000 VRB03KT P6SM SKC
     FM280600 00000KT 4SM BR SKC
     FM281200 19005KT P6SM FEW250
      AMD LTD TO CLD VIS AND WIND 2802/2810=



    US Dept of Commerce
    National Oceanic and Atmospheric Administration
    National Weather Service
    1325 East West Highway
    Silver Spring, MD 20910
    Page Author: NWS Internet Services Team
Disclaimer
Information Quality
Credits
Glossary
Privacy Policy
Freedom of Information Act (FOIA)
About Us
Career Opportunities